Aynor, South Carolina
Current Conditions -  °F | °C
As of 2:55 PM on Friday 31 Oct 2014 (Local Time) from KHYW Reporting Station
Scattered Clouds Scattered Clouds  
Wind Chill: 64°   Ceiling: Unl
Heat Index: 64°   Visibility: 7mi
Dew Point: 45°   Wind: 3mph
Humidity: 49%   Direction: 50°NE
Pressure: 29.81"   Gusts: NA
Location:  34°N, 79.2°W
Report Text: KHYW 311855Z AUTO 05003KT 7SM SCT050 18/07 A2981 RMK AO2
Loading
Personal Weather Stations






























Interactive Weather Map
Tropical Storm Tracking
New forecast layout! Learn more

10-Day Weather Forecast

Advertisements
Track Severe Weather on mobile